Time;durP1;ratioP1;P1;durP2;ratioP2;P2;SDS_P1;SDS_P2;PMS_P1;PMS_P2;Temp;Humidity;BMP_temperature;BMP_pressure;BME280_temperature;BME280_humidity;BME280_pressure;Samples;Min_cycle;Max_cycle;Signal;HPM_P1;HPM_P2
2021/12/28 00:01:10;;;;;;;;;;;8.50;99.90;;;;;;4978182;28;19930;-68
2021/12/28 00:03:38;;;;;;;;;;;8.50;99.90;;;;;;4978782;28;19978;-68
2021/12/28 00:06:05;;;;;;;;;;;8.50;99.90;;;;;;4979277;28;20347;-68
2021/12/28 00:08:32;;;;;;;;;;;8.50;99.90;;;;;;4977830;28;19929;-68
2021/12/28 00:11:00;;;;;;;;;;;8.60;99.90;;;;;;4978093;28;19929;-68
2021/12/28 00:13:28;;;;;;;;;;;8.60;99.90;;;;;;4978584;28;19937;-68
2021/12/28 00:16:13;;;;;;;;;;;8.60;99.90;;;;;;4978571;28;19929;-69
2021/12/28 00:18:40;;;;;;;;;;;8.60;99.90;;;;;;4982001;28;20335;-68
2021/12/28 00:21:08;;;;;;;;;;;8.50;99.90;;;;;;4982603;28;19948;-69
2021/12/28 00:23:39;;;;;;;;;;;8.50;99.90;;;;;;4978062;28;19930;-69
2021/12/28 00:26:08;;;;;;;;;;;8.40;99.90;;;;;;4986413;28;19929;-69
2021/12/28 00:28:35;;;;;;;;;;;8.40;99.90;;;;;;4986747;28;20292;-68
2021/12/28 00:31:05;;;;;;;;;;;8.30;99.90;;;;;;4985693;28;19930;-68
2021/12/28 00:33:32;;;;;;;;;;;8.20;99.90;;;;;;4987003;28;19929;-72
2021/12/28 00:35:59;;;;;;;;;;;8.20;99.90;;;;;;4987393;28;20001;-71
2021/12/28 00:38:27;;;;;;;;;;;8.10;99.90;;;;;;4987069;28;20451;-72
2021/12/28 00:40:54;;;;;;;;;;;8.10;99.90;;;;;;4982917;28;19951;-70
2021/12/28 00:43:23;;;;;;;;;;;8.10;99.90;;;;;;4981394;28;20044;-70
2021/12/28 00:45:50;;;;;;;;;;;8.00;99.90;;;;;;4982491;28;19933;-71
2021/12/28 00:48:17;;;;;;;;;;;8.00;99.90;;;;;;4982983;28;19937;-72
2021/12/28 00:50:46;;;;;;;;;;;8.00;99.90;;;;;;4982116;28;20068;-70
2021/12/28 00:53:13;;;;;;;;;;;7.90;99.90;;;;;;4981888;28;20009;-71
2021/12/28 00:55:40;;;;;;;;;;;7.90;99.90;;;;;;4981013;28;19929;-71
2021/12/28 00:58:07;;;;;;;;;;;7.90;99.90;;;;;;4980485;28;19956;-70
2021/12/28 01:00:38;;;;;;;;;;;7.90;99.90;;;;;;4981160;28;19925;-71
2021/12/28 01:03:05;;;;;;;;;;;7.90;99.90;;;;;;4982249;28;19937;-70
2021/12/28 01:05:32;;;;;;;;;;;7.90;99.90;;;;;;4987292;28;20360;-70
2021/12/28 01:07:59;;;;;;;;;;;7.90;99.90;;;;;;4987879;28;19925;-70
2021/12/28 01:10:28;;;;;;;;;;;9.10;99.90;;;;;;4986027;28;19932;-71
2021/12/28 01:12:55;;;;;;;;;;;7.90;99.90;;;;;;4981227;28;19929;-70
2021/12/28 01:15:22;;;;;;;;;;;7.90;99.90;;;;;;4981692;28;19938;-71
2021/12/28 01:17:50;;;;;;;;;;;7.90;99.90;;;;;;4982655;28;20020;-71
2021/12/28 01:20:17;;;;;;;;;;;7.90;99.90;;;;;;4982270;28;20403;-72
2021/12/28 01:22:44;;;;;;;;;;;7.90;99.90;;;;;;4981764;28;19980;-72
2021/12/28 01:25:13;;;;;;;;;;;7.90;99.90;;;;;;4982180;28;20303;-73
2021/12/28 01:27:39;;;;;;;;;;;7.90;99.90;;;;;;4982468;28;19930;-71
2021/12/28 01:30:08;;;;;;;;;;;8.00;99.90;;;;;;4977704;28;19937;-72
2021/12/28 01:32:36;;;;;;;;;;;8.00;99.90;;;;;;4981744;28;19930;-73
2021/12/28 01:35:06;;;;;;;;;;;9.70;99.90;;;;;;4980327;28;19949;-70
2021/12/28 01:37:33;;;;;;;;;;;8.00;99.90;;;;;;4981369;28;20433;-70
2021/12/28 01:40:00;;;;;;;;;;;8.00;99.90;;;;;;4981553;28;20437;-72
2021/12/28 01:42:28;;;;;;;;;;;8.00;99.90;;;;;;4981068;28;19936;-72
2021/12/28 01:44:55;;;;;;;;;;;8.10;99.90;;;;;;4981147;28;19977;-71
2021/12/28 01:47:22;;;;;;;;;;;8.10;99.90;;;;;;4987621;28;20406;-71
2021/12/28 01:49:49;;;;;;;;;;;8.10;99.90;;;;;;4982086;28;19970;-71
2021/12/28 01:52:17;;;;;;;;;;;8.10;99.90;;;;;;4981176;28;19929;-71
2021/12/28 01:54:44;;;;;;;;;;;8.20;99.90;;;;;;4981960;28;19936;-70
2021/12/28 01:57:10;;;;;;;;;;;8.20;99.90;;;;;;4985197;28;19993;-71
2021/12/28 01:59:37;;;;;;;;;;;8.30;99.90;;;;;;4984618;28;19968;-68
2021/12/28 02:02:04;;;;;;;;;;;8.30;99.90;;;;;;4982227;28;19940;-68
2021/12/28 02:04:31;;;;;;;;;;;8.40;99.90;;;;;;4980036;28;19953;-68
2021/12/28 02:06:58;;;;;;;;;;;8.40;99.90;;;;;;4980565;28;21035;-68
2021/12/28 02:09:26;;;;;;;;;;;8.50;99.90;;;;;;4976588;28;19930;-69
2021/12/28 02:11:53;;;;;;;;;;;8.60;99.90;;;;;;4992306;28;20402;-68
2021/12/28 02:14:21;;;;;;;;;;;8.60;99.90;;;;;;4980677;28;19956;-69
2021/12/28 02:16:47;;;;;;;;;;;8.70;99.90;;;;;;4980268;28;20206;-68
2021/12/28 02:19:15;;;;;;;;;;;8.70;99.90;;;;;;4979089;28;19929;-68
2021/12/28 02:21:43;;;;;;;;;;;8.70;99.90;;;;;;4977028;28;20394;-68
2021/12/28 02:24:10;;;;;;;;;;;8.80;99.90;;;;;;4975561;28;19929;-68
2021/12/28 02:26:37;;;;;;;;;;;8.80;99.90;;;;;;4980390;28;19933;-67
2021/12/28 02:29:04;;;;;;;;;;;8.80;99.90;;;;;;4980738;28;20310;-68
2021/12/28 02:31:30;;;;;;;;;;;8.90;99.90;;;;;;4981051;28;20261;-71
2021/12/28 02:33:58;;;;;;;;;;;8.90;99.90;;;;;;4979972;28;19936;-71
2021/12/28 02:36:25;;;;;;;;;;;8.90;99.90;;;;;;4980927;28;20020;-71
2021/12/28 02:38:54;;;;;;;;;;;8.90;99.90;;;;;;4979889;28;20164;-71
2021/12/28 02:41:21;;;;;;;;;;;9.00;99.90;;;;;;4980779;28;20030;-71
2021/12/28 02:43:48;;;;;;;;;;;9.00;99.90;;;;;;4979634;28;20005;-68
2021/12/28 02:46:16;;;;;;;;;;;9.00;99.90;;;;;;4978569;28;19940;-68
2021/12/28 02:48:43;;;;;;;;;;;9.00;99.90;;;;;;4974226;28;20280;-68
2021/12/28 02:51:11;;;;;;;;;;;9.00;99.90;;;;;;4972803;28;19930;-68
2021/12/28 02:53:38;;;;;;;;;;;9.00;99.90;;;;;;4973267;28;19937;-68
2021/12/28 02:56:06;;;;;;;;;;;9.00;99.90;;;;;;4973691;28;19930;-68
2021/12/28 02:58:34;;;;;;;;;;;9.00;99.90;;;;;;4973856;28;20395;-68
2021/12/28 03:01:02;;;;;;;;;;;9.00;99.90;;;;;;4973602;28;20403;-68
2021/12/28 03:03:30;;;;;;;;;;;9.00;99.90;;;;;;4971621;28;19929;-68
2021/12/28 03:05:58;;;;;;;;;;;9.00;99.90;;;;;;4973801;28;20303;-71
2021/12/28 03:08:26;;;;;;;;;;;9.00;99.90;;;;;;4975116;28;19956;-72
2021/12/28 03:10:53;;;;;;;;;;;9.00;99.90;;;;;;4974624;28;19933;-71
2021/12/28 03:13:22;;;;;;;;;;;9.00;99.90;;;;;;4975243;28;20330;-72
2021/12/28 03:15:50;;;;;;;;;;;9.00;99.90;;;;;;4977574;28;19930;-72
2021/12/28 03:18:17;;;;;;;;;;;9.00;99.90;;;;;;4982801;28;19930;-70
2021/12/28 03:20:43;;;;;;;;;;;9.10;99.90;;;;;;4984320;28;21092;-71
2021/12/28 03:23:10;;;;;;;;;;;9.10;99.90;;;;;;4978474;28;19936;-72
2021/12/28 03:25:37;;;;;;;;;;;9.20;99.90;;;;;;4979355;28;19925;-71
2021/12/28 03:28:04;;;;;;;;;;;9.20;99.90;;;;;;4980184;28;19926;-71
2021/12/28 03:30:32;;;;;;;;;;;9.20;99.90;;;;;;4979565;28;19940;-71
2021/12/28 03:32:59;;;;;;;;;;;9.30;99.90;;;;;;4979103;28;20319;-70
2021/12/28 03:35:26;;;;;;;;;;;9.30;99.90;;;;;;4979469;28;20310;-71
2021/12/28 03:37:52;;;;;;;;;;;9.30;99.90;;;;;;4979247;28;19930;-72
2021/12/28 03:40:19;;;;;;;;;;;9.40;99.90;;;;;;4977450;28;19930;-71
2021/12/28 03:42:46;;;;;;;;;;;9.40;99.90;;;;;;4978627;28;20036;-71
2021/12/28 03:45:13;;;;;;;;;;;9.50;99.90;;;;;;4977832;28;19933;-71
2021/12/28 03:47:42;;;;;;;;;;;9.50;99.90;;;;;;4978275;28;20379;-71
2021/12/28 03:50:10;;;;;;;;;;;9.60;99.90;;;;;;4979640;28;19949;-71
2021/12/28 03:52:37;;;;;;;;;;;9.60;99.90;;;;;;4979265;28;19929;-71
2021/12/28 03:55:04;;;;;;;;;;;9.60;99.90;;;;;;4983096;28;20417;-70
2021/12/28 03:57:32;;;;;;;;;;;9.60;99.90;;;;;;4983808;28;19926;-71
2021/12/28 03:59:59;;;;;;;;;;;9.60;99.90;;;;;;4982527;28;19930;-70
2021/12/28 04:02:26;;;;;;;;;;;9.60;99.90;;;;;;4983562;28;19934;-72
2021/12/28 04:04:54;;;;;;;;;;;9.60;99.90;;;;;;4996120;28;20012;-72
2021/12/28 04:07:21;;;;;;;;;;;9.60;99.90;;;;;;4980961;28;21062;-72
2021/12/28 04:10:00;;;;;;;;;;;9.60;99.90;;;;;;4982608;28;19929;-73
2021/12/28 04:12:27;;;;;;;;;;;9.60;99.90;;;;;;4982634;28;19929;-71
2021/12/28 04:14:54;;;;;;;;;;;11.00;99.90;;;;;;4983308;28;19929;-70
2021/12/28 04:17:21;;;;;;;;;;;9.60;99.90;;;;;;4982376;28;20310;-71
2021/12/28 04:19:48;;;;;;;;;;;9.60;99.90;;;;;;4982916;28;19929;-71
2021/12/28 04:22:16;;;;;;;;;;;9.60;99.90;;;;;;4983096;28;19953;-71
2021/12/28 04:24:43;;;;;;;;;;;9.50;99.90;;;;;;4983163;28;19929;-71
2021/12/28 04:27:10;;;;;;;;;;;9.50;99.90;;;;;;4982442;28;20064;-71
2021/12/28 04:29:36;;;;;;;;;;;9.50;99.90;;;;;;4982581;28;19952;-73
2021/12/28 04:32:03;;;;;;;;;;;9.50;99.90;;;;;;4981251;28;20008;-71
2021/12/28 04:34:30;;;;;;;;;;;9.40;99.90;;;;;;4981476;28;19930;-71
2021/12/28 04:36:57;;;;;;;;;;;9.40;99.90;;;;;;4979323;28;19926;-71
2021/12/28 04:39:25;;;;;;;;;;;9.40;99.90;;;;;;4977506;28;19949;-71
2021/12/28 04:41:52;;;;;;;;;;;9.40;99.90;;;;;;4979590;28;19937;-71
2021/12/28 04:44:24;;;;;;;;;;;9.40;99.90;;;;;;4983023;28;19929;-72
2021/12/28 04:46:51;;;;;;;;;;;9.40;99.90;;;;;;4981867;28;19937;-72
2021/12/28 04:49:19;;;;;;;;;;;10.70;99.90;;;;;;4983086;28;19932;-72
2021/12/28 04:51:46;;;;;;;;;;;9.50;99.90;;;;;;4982360;28;19936;-71
2021/12/28 04:54:13;;;;;;;;;;;9.50;99.90;;;;;;4979788;28;19930;-72
2021/12/28 04:56:41;;;;;;;;;;;9.50;99.90;;;;;;4982875;28;20342;-68
2021/12/28 04:59:08;;;;;;;;;;;9.40;99.90;;;;;;4981721;28;20233;-68
2021/12/28 05:01:36;;;;;;;;;;;9.40;99.90;;;;;;4982066;28;20383;-67
2021/12/28 05:04:03;;;;;;;;;;;9.40;99.90;;;;;;4981863;28;19936;-68
2021/12/28 05:06:30;;;;;;;;;;;9.40;99.90;;;;;;4981867;28;19930;-68
2021/12/28 05:08:57;;;;;;;;;;;9.40;99.90;;;;;;4981527;28;19933;-69
2021/12/28 05:11:24;;;;;;;;;;;10.80;99.90;;;;;;4981172;28;19938;-68
2021/12/28 05:13:52;;;;;;;;;;;9.50;99.90;;;;;;4981860;28;19937;-68
2021/12/28 05:16:19;;;;;;;;;;;9.50;99.90;;;;;;4981480;28;19967;-69
2021/12/28 05:18:45;;;;;;;;;;;9.50;99.90;;;;;;4981509;28;19937;-69
2021/12/28 05:21:12;;;;;;;;;;;9.60;99.90;;;;;;4980701;28;19930;-68
2021/12/28 05:23:39;;;;;;;;;;;9.60;99.90;;;;;;4979542;28;19993;-67
2021/12/28 05:26:06;;;;;;;;;;;9.60;99.90;;;;;;4980798;28;19992;-69
2021/12/28 05:28:32;;;;;;;;;;;9.60;99.90;;;;;;4980925;28;19933;-67
2021/12/28 05:31:00;;;;;;;;;;;9.60;99.90;;;;;;4980681;28;19936;-67
2021/12/28 05:33:27;;;;;;;;;;;9.60;99.90;;;;;;4978332;28;19937;-67
2021/12/28 05:35:54;;;;;;;;;;;9.60;99.90;;;;;;4981578;28;19969;-68
2021/12/28 05:38:21;;;;;;;;;;;9.60;99.90;;;;;;4980139;28;19936;-68
2021/12/28 05:40:47;;;;;;;;;;;9.70;99.90;;;;;;4980680;28;19992;-68
2021/12/28 05:43:15;;;;;;;;;;;10.00;99.90;;;;;;4978921;28;20013;-68
2021/12/28 05:45:41;;;;;;;;;;;9.70;99.90;;;;;;4980809;28;20369;-68
2021/12/28 05:48:09;;;;;;;;;;;9.70;99.90;;;;;;4980739;28;19936;-68
2021/12/28 05:50:36;;;;;;;;;;;9.80;99.90;;;;;;4980213;28;20500;-68
2021/12/28 05:53:03;;;;;;;;;;;9.80;99.90;;;;;;4977256;28;19930;-68
2021/12/28 05:55:30;;;;;;;;;;;9.80;99.90;;;;;;4980536;28;19929;-73
2021/12/28 05:57:56;;;;;;;;;;;10.70;99.90;;;;;;4981703;28;19937;-73
2021/12/28 06:00:24;;;;;;;;;;;9.90;99.90;;;;;;4983632;28;19930;-71
2021/12/28 06:02:50;;;;;;;;;;;9.90;99.90;;;;;;4984077;28;20433;-71
2021/12/28 06:05:18;;;;;;;;;;;9.90;99.90;;;;;;4982507;28;19929;-71
2021/12/28 06:07:45;;;;;;;;;;;9.90;99.90;;;;;;4977648;28;19945;-71
2021/12/28 06:10:14;;;;;;;;;;;9.90;99.90;;;;;;4980342;28;19948;-71
2021/12/28 06:12:41;;;;;;;;;;;9.90;99.90;;;;;;4981404;28;19996;-71
2021/12/28 06:15:08;;;;;;;;;;;9.90;99.90;;;;;;4981761;28;20162;-71
2021/12/28 06:17:36;;;;;;;;;;;10.00;99.90;;;;;;4980566;28;20419;-71
2021/12/28 06:22:39;;;;;;;;;;;9.90;99.90;;;;;;5017279;28;21102;-67
2021/12/28 06:25:07;;;;;;;;;;;9.90;99.90;;;;;;5001685;28;19928;-67
2021/12/28 06:27:34;;;;;;;;;;;9.80;99.90;;;;;;5019980;28;20016;-67
2021/12/28 06:30:00;;;;;;;;;;;9.80;99.90;;;;;;5001155;28;19929;-68
2021/12/28 06:32:27;;;;;;;;;;;9.80;99.90;;;;;;5018597;28;19929;-67
2021/12/28 06:34:54;;;;;;;;;;;9.70;99.90;;;;;;5020125;28;19936;-67
2021/12/28 06:37:21;;;;;;;;;;;9.70;99.90;;;;;;5019658;28;20409;-68
2021/12/28 06:39:49;;;;;;;;;;;9.60;99.90;;;;;;5019437;28;19935;-68
2021/12/28 06:42:16;;;;;;;;;;;9.50;99.90;;;;;;5018833;28;19936;-67
2021/12/28 06:44:45;;;;;;;;;;;9.40;99.90;;;;;;5017684;28;19929;-67
2021/12/28 06:47:12;;;;;;;;;;;9.30;99.90;;;;;;5018285;28;19956;-67
2021/12/28 06:49:39;;;;;;;;;;;9.30;99.90;;;;;;5017348;28;19936;-68
2021/12/28 06:52:06;;;;;;;;;;;9.20;99.90;;;;;;4999398;28;20311;-68
2021/12/28 06:54:36;;;;;;;;;;;9.20;99.90;;;;;;5017528;28;20035;-68
2021/12/28 06:57:07;;;;;;;;;;;9.10;99.90;;;;;;5017809;28;19928;-68
2021/12/28 06:59:34;;;;;;;;;;;9.10;99.90;;;;;;5018882;28;20015;-68
2021/12/28 07:02:00;;;;;;;;;;;9.10;99.90;;;;;;5018368;28;19928;-68
2021/12/28 07:04:27;;;;;;;;;;;9.10;99.90;;;;;;5018083;28;19929;-69
2021/12/28 07:06:54;;;;;;;;;;;9.10;99.90;;;;;;5015505;28;19936;-68
2021/12/28 07:09:21;;;;;;;;;;;9.10;99.90;;;;;;4995361;28;20328;-69
2021/12/28 07:11:47;;;;;;;;;;;10.40;99.90;;;;;;5014695;28;19928;-68
2021/12/28 07:14:15;;;;;;;;;;;9.30;99.90;;;;;;5014125;28;19929;-68
2021/12/28 07:16:42;;;;;;;;;;;9.30;99.90;;;;;;5014406;28;20531;-69
2021/12/28 07:19:11;;;;;;;;;;;9.40;99.90;;;;;;5017660;28;20309;-69
2021/12/28 07:21:37;;;;;;;;;;;9.40;99.90;;;;;;5017118;28;20315;-69
2021/12/28 07:24:05;;;;;;;;;;;9.40;99.90;;;;;;5018159;28;19936;-69
2021/12/28 07:26:31;;;;;;;;;;;9.50;99.90;;;;;;5016164;28;19929;-68
2021/12/28 07:28:58;;;;;;;;;;;9.50;99.90;;;;;;5018574;28;20574;-67
2021/12/28 07:31:27;;;;;;;;;;;9.60;99.90;;;;;;5017988;28;19929;-67
2021/12/28 07:33:54;;;;;;;;;;;9.60;99.90;;;;;;5017551;28;20406;-68
2021/12/28 07:36:21;;;;;;;;;;;9.70;99.90;;;;;;5015508;28;19936;-68
2021/12/28 07:38:48;;;;;;;;;;;9.80;99.90;;;;;;5015702;28;21334;-68
2021/12/28 07:41:15;;;;;;;;;;;9.80;99.90;;;;;;5015588;28;20713;-68
2021/12/28 07:43:41;;;;;;;;;;;9.90;99.90;;;;;;5014735;28;19929;-68
2021/12/28 07:46:08;;;;;;;;;;;9.90;99.90;;;;;;5017978;28;19951;-67
2021/12/28 07:48:36;;;;;;;;;;;9.90;99.90;;;;;;5018724;28;19929;-68
2021/12/28 07:51:05;;;;;;;;;;;9.90;99.90;;;;;;5002624;28;19925;-67
2021/12/28 07:53:32;;;;;;;;;;;9.90;99.90;;;;;;5016756;28;20602;-68
2021/12/28 07:55:59;;;;;;;;;;;9.90;99.90;;;;;;5023070;28;19948;-68
2021/12/28 07:58:26;;;;;;;;;;;9.80;99.90;;;;;;5024490;28;20385;-68
2021/12/28 08:00:53;;;;;;;;;;;10.30;99.90;;;;;;5024012;28;20570;-68
2021/12/28 08:03:20;;;;;;;;;;;9.70;99.90;;;;;;5023330;28;19925;-68
2021/12/28 08:05:48;;;;;;;;;;;9.60;99.90;;;;;;5024643;28;19929;-68
2021/12/28 08:08:14;;;;;;;;;;;9.60;99.90;;;;;;5023344;28;19925;-68
2021/12/28 08:10:41;;;;;;;;;;;9.60;99.90;;;;;;5022074;28;20264;-68
2021/12/28 08:13:08;;;;;;;;;;;9.70;99.90;;;;;;5022048;28;19928;-68
2021/12/28 08:15:34;;;;;;;;;;;9.90;99.90;;;;;;5021739;28;20412;-68
2021/12/28 08:18:03;;;;;;;;;;;10.00;99.90;;;;;;5023046;28;19987;-68
2021/12/28 08:20:29;;;;;;;;;;;10.10;99.90;;;;;;5020516;28;19925;-68
2021/12/28 08:22:58;;;;;;;;;;;10.20;99.90;;;;;;5020054;28;20011;-69
2021/12/28 08:25:25;;;;;;;;;;;10.20;99.90;;;;;;5022618;28;20293;-69
2021/12/28 08:27:51;;;;;;;;;;;10.20;99.90;;;;;;5025223;28;19933;-69
2021/12/28 08:30:19;;;;;;;;;;;10.70;99.90;;;;;;5025207;28;19921;-69
2021/12/28 08:32:46;;;;;;;;;;;10.30;99.90;;;;;;5021429;28;19925;-68
2021/12/28 08:35:13;;;;;;;;;;;10.30;99.90;;;;;;5024354;28;20202;-67
2021/12/28 08:37:40;;;;;;;;;;;10.30;99.90;;;;;;5024217;28;19932;-68
2021/12/28 08:40:09;;;;;;;;;;;10.30;99.90;;;;;;5028581;28;19940;-69
2021/12/28 08:42:36;;;;;;;;;;;10.30;99.90;;;;;;5024760;28;19925;-68
2021/12/28 08:45:04;;;;;;;;;;;10.30;99.90;;;;;;5014327;28;20385;-69
2021/12/28 08:47:30;;;;;;;;;;;10.20;99.90;;;;;;5012781;28;21263;-68
2021/12/28 08:49:58;;;;;;;;;;;10.20;99.90;;;;;;5020267;28;19928;-68
2021/12/28 08:52:25;;;;;;;;;;;10.30;99.90;;;;;;5022237;28;19925;-68
2021/12/28 08:54:52;;;;;;;;;;;10.40;99.90;;;;;;5018024;28;20386;-69
2021/12/28 08:57:21;;;;;;;;;;;10.50;99.90;;;;;;5014346;28;19921;-69
2021/12/28 08:59:48;;;;;;;;;;;10.60;99.90;;;;;;5022949;28;20115;-69
2021/12/28 09:02:14;;;;;;;;;;;10.70;99.90;;;;;;5001239;28;19922;-69
2021/12/28 09:04:43;;;;;;;;;;;10.90;99.90;;;;;;5025166;28;20393;-69
2021/12/28 09:07:10;;;;;;;;;;;11.20;99.90;;;;;;5027414;28;19925;-69
2021/12/28 09:09:37;;;;;;;;;;;11.00;99.90;;;;;;5023630;28;19924;-69
2021/12/28 09:12:04;;;;;;;;;;;11.00;99.90;;;;;;5026907;28;19929;-69
2021/12/28 09:14:33;;;;;;;;;;;11.00;99.90;;;;;;5024965;28;20352;-69
2021/12/28 09:17:00;;;;;;;;;;;11.00;99.90;;;;;;5026031;28;19932;-69
2021/12/28 09:19:27;;;;;;;;;;;10.90;99.90;;;;;;5021130;28;19932;-69
2021/12/28 09:21:54;;;;;;;;;;;11.00;99.90;;;;;;5015088;28;20023;-69
2021/12/28 09:24:21;;;;;;;;;;;11.00;99.90;;;;;;5015424;28;19921;-68
2021/12/28 09:26:48;;;;;;;;;;;11.10;99.90;;;;;;5019512;28;20240;-69
2021/12/28 09:29:14;;;;;;;;;;;11.10;99.90;;;;;;5016437;28;19928;-69
2021/12/28 09:31:42;;;;;;;;;;;11.10;99.90;;;;;;5017285;28;19927;-69
2021/12/28 09:34:09;;;;;;;;;;;11.10;99.90;;;;;;5014053;28;19921;-70
2021/12/28 09:36:37;;;;;;;;;;;11.10;99.90;;;;;;5011247;28;19924;-69
2021/12/28 09:39:04;;;;;;;;;;;12.10;99.90;;;;;;5008003;28;20015;-69
2021/12/28 09:41:30;;;;;;;;;;;11.10;99.90;;;;;;5014682;28;19929;-70
2021/12/28 09:43:57;;;;;;;;;;;11.10;99.90;;;;;;5009755;28;20100;-69
2021/12/28 09:46:24;;;;;;;;;;;11.30;99.90;;;;;;5011614;28;19977;-70
2021/12/28 09:48:52;;;;;;;;;;;12.30;99.90;;;;;;5014702;28;19933;-69
2021/12/28 09:51:19;;;;;;;;;;;11.10;99.90;;;;;;5021600;28;19993;-69
2021/12/28 09:53:45;;;;;;;;;;;11.10;99.90;;;;;;5019298;28;19929;-70
2021/12/28 09:56:13;;;;;;;;;;;11.00;99.90;;;;;;5017757;28;19929;-70
2021/12/28 09:58:40;;;;;;;;;;;11.00;99.90;;;;;;5017930;28;21054;-69
2021/12/28 10:01:08;;;;;;;;;;;11.00;99.90;;;;;;5025825;28;19948;-69
2021/12/28 10:03:35;;;;;;;;;;;10.80;99.90;;;;;;5025010;28;19932;-69
2021/12/28 10:06:14;;;;;;;;;;;11.00;99.90;;;;;;5024474;28;19928;-69
2021/12/28 10:08:41;;;;;;;;;;;10.60;99.90;;;;;;5018411;28;19933;-69
2021/12/28 10:11:07;;;;;;;;;;;10.60;99.90;;;;;;5020343;28;19929;-69
2021/12/28 10:13:34;;;;;;;;;;;10.70;99.90;;;;;;5015598;28;19936;-69
2021/12/28 10:16:01;;;;;;;;;;;10.60;99.90;;;;;;5018123;28;19932;-69
2021/12/28 10:18:28;;;;;;;;;;;10.60;99.90;;;;;;4999727;28;20003;-69
2021/12/28 10:20:56;;;;;;;;;;;10.60;99.90;;;;;;5013806;28;19929;-69
2021/12/28 10:23:25;;;;;;;;;;;10.60;99.90;;;;;;5023077;28;19932;-69
2021/12/28 10:25:53;;;;;;;;;;;10.50;99.90;;;;;;5021019;28;19921;-69
2021/12/28 10:28:21;;;;;;;;;;;10.50;99.90;;;;;;5022810;28;19921;-70
2021/12/28 10:30:49;;;;;;;;;;;10.50;99.90;;;;;;5024203;28;20315;-69
2021/12/28 10:33:17;;;;;;;;;;;10.50;99.90;;;;;;5018602;28;19990;-70
2021/12/28 10:35:46;;;;;;;;;;;10.50;99.90;;;;;;5016346;28;19933;-70
2021/12/28 10:38:14;;;;;;;;;;;10.40;99.90;;;;;;5021294;28;19932;-70
2021/12/28 10:40:43;;;;;;;;;;;10.40;99.90;;;;;;5022480;28;19925;-70
2021/12/28 10:43:10;;;;;;;;;;;10.40;99.90;;;;;;5023431;28;19925;-68
2021/12/28 10:45:39;;;;;;;;;;;10.40;99.90;;;;;;5019261;28;19925;-68
2021/12/28 10:48:10;;;;;;;;;;;10.40;99.90;;;;;;5024832;28;19929;-69
2021/12/28 10:50:39;;;;;;;;;;;10.40;99.90;;;;;;5018032;28;20409;-69
2021/12/28 10:53:10;;;;;;;;;;;10.50;99.90;;;;;;5018113;28;19928;-69
2021/12/28 10:55:37;;;;;;;;;;;10.60;99.90;;;;;;5016047;28;19952;-69
2021/12/28 10:58:06;;;;;;;;;;;10.60;99.90;;;;;;5017255;28;20444;-69
2021/12/28 11:00:35;;;;;;;;;;;10.70;99.90;;;;;;5017344;28;20024;-69
2021/12/28 11:03:34;;;;;;;;;;;10.70;99.90;;;;;;5019880;28;19933;-69
2021/12/28 11:06:05;;;;;;;;;;;10.70;99.90;;;;;;4961111;28;19932;-68
2021/12/28 11:08:31;;;;;;;;;;;10.70;99.90;;;;;;5008637;28;20361;-69
2021/12/28 11:11:00;;;;;;;;;;;10.70;99.90;;;;;;5015451;28;19929;-69
2021/12/28 11:13:30;;;;;;;;;;;10.70;99.90;;;;;;5017197;28;20445;-69
2021/12/28 11:15:56;;;;;;;;;;;10.80;99.90;;;;;;5015398;28;19960;-69
2021/12/28 11:18:25;;;;;;;;;;;10.80;99.90;;;;;;5017438;28;20449;-70
2021/12/28 11:20:56;;;;;;;;;;;10.80;99.90;;;;;;5019076;28;19921;-69
2021/12/28 11:23:23;;;;;;;;;;;10.80;99.90;;;;;;5025568;28;20302;-69
2021/12/28 11:26:06;;;;;;;;;;;10.80;99.90;;;;;;5021352;28;19933;-69
2021/12/28 11:28:35;;;;;;;;;;;10.80;99.90;;;;;;5011999;28;19925;-69
2021/12/28 11:31:06;;;;;;;;;;;10.80;99.90;;;;;;5013280;28;19928;-69
2021/12/28 11:33:50;;;;;;;;;;;10.80;99.90;;;;;;5011214;28;19929;-69
2021/12/28 11:36:17;;;;;;;;;;;10.90;99.90;;;;;;5011853;28;19925;-69
2021/12/28 11:38:44;;;;;;;;;;;11.00;99.90;;;;;;5007765;28;19925;-70
2021/12/28 11:41:12;;;;;;;;;;;11.00;99.90;;;;;;5011864;28;19921;-70
2021/12/28 11:43:40;;;;;;;;;;;11.10;99.90;;;;;;5014005;28;20403;-70
2021/12/28 11:46:08;;;;;;;;;;;11.20;99.90;;;;;;5011173;28;19975;-69
2021/12/28 11:48:35;;;;;;;;;;;11.30;99.90;;;;;;5013315;28;20012;-69
2021/12/28 11:51:02;;;;;;;;;;;11.30;99.90;;;;;;5009457;28;19921;-68
2021/12/28 11:53:29;;;;;;;;;;;11.30;99.90;;;;;;5014906;28;20643;-70
2021/12/28 11:55:56;;;;;;;;;;;11.20;99.90;;;;;;5014565;28;19936;-70
2021/12/28 11:58:37;;;;;;;;;;;11.10;99.90;;;;;;5019566;28;20290;-69
2021/12/28 12:01:06;;;;;;;;;;;11.00;99.90;;;;;;5020141;28;19925;-70
2021/12/28 12:03:33;;;;;;;;;;;10.90;99.90;;;;;;5026698;28;19925;-69
2021/12/28 12:06:00;;;;;;;;;;;10.80;99.90;;;;;;5024186;28;19925;-69
2021/12/28 12:08:27;;;;;;;;;;;10.80;99.90;;;;;;5013513;28;19928;-69
2021/12/28 12:11:01;;;;;;;;;;;10.70;99.90;;;;;;5015292;28;19929;-69
2021/12/28 12:13:28;;;;;;;;;;;10.70;99.90;;;;;;5000327;28;20417;-69
2021/12/28 12:15:56;;;;;;;;;;;10.70;99.90;;;;;;5023139;28;19932;-69
2021/12/28 12:18:26;;;;;;;;;;;10.60;99.90;;;;;;5023308;28;20307;-69
2021/12/28 12:21:00;;;;;;;;;;;10.60;99.90;;;;;;5021193;28;19929;-69
2021/12/28 12:23:28;;;;;;;;;;;10.50;99.90;;;;;;5022452;28;19925;-69
2021/12/28 12:26:00;;;;;;;;;;;10.50;99.90;;;;;;5020100;28;19925;-69
2021/12/28 12:28:43;;;;;;;;;;;10.40;99.90;;;;;;5021185;28;19935;-69
2021/12/28 12:31:11;;;;;;;;;;;10.40;99.90;;;;;;5021462;28;20035;-69
2021/12/28 12:33:41;;;;;;;;;;;10.30;99.90;;;;;;5027494;28;19932;-69
2021/12/28 12:36:10;;;;;;;;;;;11.30;99.90;;;;;;5007976;28;19921;-69
2021/12/28 12:38:40;;;;;;;;;;;10.30;99.90;;;;;;5027165;28;20255;-70
2021/12/28 12:41:09;;;;;;;;;;;10.30;99.90;;;;;;5028966;28;19925;-69
2021/12/28 12:43:47;;;;;;;;;;;10.40;99.90;;;;;;5027200;28;19929;-69
2021/12/28 12:46:18;;;;;;;;;;;10.40;99.90;;;;;;5015868;28;19928;-69
2021/12/28 12:48:57;;;;;;;;;;;11.60;99.90;;;;;;5015698;28;19944;-69
2021/12/28 12:51:29;;;;;;;;;;;10.60;99.90;;;;;;5014177;28;19924;-69
2021/12/28 12:53:58;;;;;;;;;;;10.50;99.90;;;;;;5009005;28;19929;-69
2021/12/28 12:56:26;;;;;;;;;;;10.60;99.90;;;;;;5010415;28;20432;-69
2021/12/28 12:58:54;;;;;;;;;;;10.70;99.90;;;;;;5015253;28;20347;-69
2021/12/28 13:01:23;;;;;;;;;;;10.70;99.90;;;;;;5016217;28;19991;-69
2021/12/28 13:03:50;;;;;;;;;;;10.80;99.90;;;;;;5016449;28;19921;-69
2021/12/28 13:06:46;;;;;;;;;;;10.90;99.90;;;;;;5011588;28;20260;-70
2021/12/28 13:09:14;;;;;;;;;;;10.90;99.90;;;;;;5014370;28;19921;-68
2021/12/28 13:11:41;;;;;;;;;;;11.00;99.90;;;;;;4998555;28;20218;-69
2021/12/28 13:14:09;;;;;;;;;;;11.00;99.90;;;;;;5015180;28;19933;-69
2021/12/28 13:16:36;;;;;;;;;;;11.00;99.90;;;;;;5022780;28;19925;-68
2021/12/28 13:19:07;;;;;;;;;;;11.60;99.90;;;;;;5021078;28;19929;-69
2021/12/28 13:21:35;;;;;;;;;;;11.00;99.90;;;;;;5028265;23;19994;-67
2021/12/28 13:24:05;;;;;;;;;;;11.00;99.90;;;;;;4990571;28;19945;-68
2021/12/28 13:26:41;;;;;;;;;;;11.00;99.90;;;;;;4989445;28;19929;-68
2021/12/28 13:29:08;;;;;;;;;;;11.00;99.90;;;;;;4982784;28;19926;-68
2021/12/28 13:31:35;;;;;;;;;;;11.00;99.90;;;;;;4968584;28;19933;-69
2021/12/28 13:34:02;;;;;;;;;;;11.00;99.90;;;;;;4992944;28;19926;-68
2021/12/28 13:36:29;;;;;;;;;;;11.00;99.90;;;;;;4989538;28;20409;-69
2021/12/28 13:39:05;;;;;;;;;;;11.10;99.90;;;;;;5000391;28;19921;-68
2021/12/28 13:41:32;;;;;;;;;;;11.20;99.90;;;;;;4992421;28;19922;-70
2021/12/28 13:44:02;;;;;;;;;;;11.30;99.90;;;;;;4992300;28;19956;-69
2021/12/28 13:46:29;;;;;;;;;;;11.40;99.90;;;;;;4994357;28;19926;-70
2021/12/28 13:48:58;;;;;;;;;;;11.60;99.90;;;;;;4994867;28;20218;-69
2021/12/28 13:51:25;;;;;;;;;;;12.70;99.90;;;;;;5000240;28;19952;-70
2021/12/28 13:53:52;;;;;;;;;;;11.90;99.90;;;;;;4990068;28;20005;-71
2021/12/28 13:56:21;;;;;;;;;;;12.10;99.90;;;;;;4989929;28;19944;-70
2021/12/28 13:58:49;;;;;;;;;;;12.30;99.90;;;;;;4995943;28;19953;-69
2021/12/28 14:01:17;;;;;;;;;;;13.70;99.90;;;;;;4991965;28;19921;-69
2021/12/28 14:03:55;;;;;;;;;;;12.30;99.90;;;;;;4989414;28;19922;-69
2021/12/28 14:06:22;;;;;;;;;;;12.80;99.90;;;;;;4974873;28;19956;-69
2021/12/28 14:08:49;;;;;;;;;;;12.10;99.90;;;;;;4975588;28;20362;-70
2021/12/28 14:11:28;;;;;;;;;;;13.30;99.90;;;;;;4983812;28;20027;-69
2021/12/28 14:13:56;;;;;;;;;;;13.20;99.90;;;;;;4986615;28;19925;-69
2021/12/28 14:16:23;;;;;;;;;;;11.90;99.90;;;;;;4986169;28;20382;-69
2021/12/28 14:18:51;;;;;;;;;;;11.80;99.90;;;;;;4989893;28;19928;-69
2021/12/28 14:21:19;;;;;;;;;;;11.80;99.90;;;;;;4970402;28;20391;-69
2021/12/28 14:23:53;;;;;;;;;;;11.80;99.90;;;;;;4983788;28;19930;-69
2021/12/28 14:26:23;;;;;;;;;;;11.70;99.90;;;;;;4966467;28;19929;-69
2021/12/28 14:28:54;;;;;;;;;;;11.60;99.90;;;;;;4990516;28;19933;-69
2021/12/28 14:31:23;;;;;;;;;;;11.60;99.90;;;;;;4986698;28;20291;-69